sensor_id;sensor_type;location;lat;lon;timestamp;pressure;altitude;pressure_sealevel;temperature;humidity
80629;BME280;69983;42.370;-71.210;2023-11-19T00:00:31;100581.44;;;22.12;28.99
80629;BME280;69983;42.370;-71.210;2023-11-19T00:02:31;100585.55;;;22.18;28.76
80629;BME280;69983;42.370;-71.210;2023-11-19T00:04:31;100585.89;;;22.37;28.69
80629;BME280;69983;42.370;-71.210;2023-11-19T00:06:32;100593.01;;;22.25;28.98
80629;BME280;69983;42.370;-71.210;2023-11-19T00:08:32;100590.99;;;22.71;28.97
80629;BME280;69983;42.370;-71.210;2023-11-19T00:10:32;100599.33;;;22.54;28.92
80629;BME280;69983;42.370;-71.210;2023-11-19T00:12:33;100597.40;;;22.52;29.07
80629;BME280;69983;42.370;-71.210;2023-11-19T00:14:33;100606.50;;;22.32;28.98
80629;BME280;69983;42.370;-71.210;2023-11-19T00:16:34;100601.25;;;22.30;29.07
80629;BME280;69983;42.370;-71.210;2023-11-19T00:18:35;100603.90;;;22.48;29.13
80629;BME280;69983;42.370;-71.210;2023-11-19T00:20:36;100597.70;;;22.96;28.95
80629;BME280;69983;42.370;-71.210;2023-11-19T00:22:35;100596.42;;;22.59;28.87
80629;BME280;69983;42.370;-71.210;2023-11-19T00:24:36;100597.63;;;22.55;28.58
80629;BME280;69983;42.370;-71.210;2023-11-19T00:26:37;100599.62;;;23.15;27.55
80629;BME280;69983;42.370;-71.210;2023-11-19T00:28:37;100601.24;;;22.63;28.93
80629;BME280;69983;42.370;-71.210;2023-11-19T00:30:37;100597.93;;;23.03;28.81
80629;BME280;69983;42.370;-71.210;2023-11-19T00:32:38;100605.94;;;23.07;28.89
80629;BME280;69983;42.370;-71.210;2023-11-19T00:34:38;100604.80;;;22.52;29.24
80629;BME280;69983;42.370;-71.210;2023-11-19T00:36:39;100606.07;;;22.79;28.89
80629;BME280;69983;42.370;-71.210;2023-11-19T00:38:39;100600.81;;;22.92;28.78
80629;BME280;69983;42.370;-71.210;2023-11-19T00:40:39;100612.33;;;22.86;28.97
80629;BME280;69983;42.370;-71.210;2023-11-19T00:42:40;100613.64;;;23.02;28.87
80629;BME280;69983;42.370;-71.210;2023-11-19T00:44:40;100611.73;;;22.60;29.19
80629;BME280;69983;42.370;-71.210;2023-11-19T00:46:41;100614.73;;;23.13;29.16
80629;BME280;69983;42.370;-71.210;2023-11-19T00:48:41;100621.35;;;23.32;29.10
80629;BME280;69983;42.370;-71.210;2023-11-19T00:50:47;100625.66;;;23.20;28.94
80629;BME280;69983;42.370;-71.210;2023-11-19T00:52:41;100611.20;;;23.19;29.11
80629;BME280;69983;42.370;-71.210;2023-11-19T00:54:41;100618.57;;;23.14;29.27
80629;BME280;69983;42.370;-71.210;2023-11-19T00:56:41;100621.72;;;22.94;29.37
80629;BME280;69983;42.370;-71.210;2023-11-19T00:58:43;100616.18;;;22.89;29.43
80629;BME280;69983;42.370;-71.210;2023-11-19T01:00:43;100608.25;;;23.21;29.10
80629;BME280;69983;42.370;-71.210;2023-11-19T01:02:44;100607.02;;;23.31;28.94
80629;BME280;69983;42.370;-71.210;2023-11-19T01:04:44;100607.19;;;23.22;28.89
80629;BME280;69983;42.370;-71.210;2023-11-19T01:06:44;100608.91;;;23.06;29.10
80629;BME280;69983;42.370;-71.210;2023-11-19T01:08:44;100608.36;;;23.35;29.13
80629;BME280;69983;42.370;-71.210;2023-11-19T01:10:45;100609.71;;;23.43;29.07
80629;BME280;69983;42.370;-71.210;2023-11-19T01:12:47;100606.95;;;23.37;29.18
80629;BME280;69983;42.370;-71.210;2023-11-19T01:14:46;100601.76;;;23.22;29.47
80629;BME280;69983;42.370;-71.210;2023-11-19T01:16:47;100607.16;;;23.36;29.11
80629;BME280;69983;42.370;-71.210;2023-11-19T01:18:48;100607.09;;;23.44;29.12
80629;BME280;69983;42.370;-71.210;2023-11-19T01:20:48;100613.57;;;23.80;29.04
80629;BME280;69983;42.370;-71.210;2023-11-19T01:22:49;100614.20;;;23.77;29.36
80629;BME280;69983;42.370;-71.210;2023-11-19T01:24:49;100621.75;;;23.94;29.00
80629;BME280;69983;42.370;-71.210;2023-11-19T01:26:49;100637.34;;;23.98;28.64
80629;BME280;69983;42.370;-71.210;2023-11-19T01:28:50;100640.52;;;23.75;28.98
80629;BME280;69983;42.370;-71.210;2023-11-19T01:30:51;100646.08;;;23.50;29.05
80629;BME280;69983;42.370;-71.210;2023-11-19T01:32:50;100653.13;;;23.49;29.09
80629;BME280;69983;42.370;-71.210;2023-11-19T01:34:55;100658.79;;;23.57;29.02
80629;BME280;69983;42.370;-71.210;2023-11-19T01:36:51;100659.24;;;24.30;28.79
80629;BME280;69983;42.370;-71.210;2023-11-19T01:38:52;100657.51;;;24.51;28.31
80629;BME280;69983;42.370;-71.210;2023-11-19T01:40:56;100654.96;;;24.20;28.80
80629;BME280;69983;42.370;-71.210;2023-11-19T01:42:53;100650.32;;;23.22;29.38
80629;BME280;69983;42.370;-71.210;2023-11-19T01:44:59;100650.71;;;23.94;29.23
80629;BME280;69983;42.370;-71.210;2023-11-19T01:46:54;100658.69;;;24.13;29.08
80629;BME280;69983;42.370;-71.210;2023-11-19T01:48:55;100664.82;;;23.77;28.97
80629;BME280;69983;42.370;-71.210;2023-11-19T01:50:55;100670.18;;;23.76;29.28
80629;BME280;69983;42.370;-71.210;2023-11-19T01:52:56;100666.70;;;23.75;29.30
80629;BME280;69983;42.370;-71.210;2023-11-19T01:54:56;100671.69;;;24.16;28.89
80629;BME280;69983;42.370;-71.210;2023-11-19T01:56:56;100668.95;;;24.46;28.36
80629;BME280;69983;42.370;-71.210;2023-11-19T01:58:57;100669.16;;;23.84;29.36
80629;BME280;69983;42.370;-71.210;2023-11-19T02:00:57;100675.46;;;23.67;29.31
80629;BME280;69983;42.370;-71.210;2023-11-19T02:02:57;100683.53;;;23.60;29.26
80629;BME280;69983;42.370;-71.210;2023-11-19T02:04:58;100686.45;;;23.68;29.27
80629;BME280;69983;42.370;-71.210;2023-11-19T02:06:58;100685.97;;;23.68;29.56
80629;BME280;69983;42.370;-71.210;2023-11-19T02:08:59;100684.12;;;23.61;29.66
80629;BME280;69983;42.370;-71.210;2023-11-19T02:10:59;100682.85;;;23.35;29.97
80629;BME280;69983;42.370;-71.210;2023-11-19T02:13:00;100679.92;;;23.36;29.99
80629;BME280;69983;42.370;-71.210;2023-11-19T02:15:00;100680.98;;;22.85;29.84
80629;BME280;69983;42.370;-71.210;2023-11-19T02:17:00;100680.39;;;23.49;29.78
80629;BME280;69983;42.370;-71.210;2023-11-19T02:19:01;100679.09;;;23.12;30.24
80629;BME280;69983;42.370;-71.210;2023-11-19T02:21:01;100683.35;;;23.10;30.17
80629;BME280;69983;42.370;-71.210;2023-11-19T02:23:02;100682.05;;;22.95;30.34
80629;BME280;69983;42.370;-71.210;2023-11-19T02:25:06;100682.79;;;23.02;30.32
80629;BME280;69983;42.370;-71.210;2023-11-19T02:27:08;100680.77;;;23.18;30.22
80629;BME280;69983;42.370;-71.210;2023-11-19T02:29:03;100678.82;;;23.03;30.39
80629;BME280;69983;42.370;-71.210;2023-11-19T02:31:04;100678.58;;;22.77;30.44
80629;BME280;69983;42.370;-71.210;2023-11-19T02:33:04;100676.47;;;23.09;30.39
80629;BME280;69983;42.370;-71.210;2023-11-19T02:35:05;100681.56;;;22.91;30.59
80629;BME280;69983;42.370;-71.210;2023-11-19T02:37:04;100683.02;;;22.94;30.84
80629;BME280;69983;42.370;-71.210;2023-11-19T02:39:05;100686.59;;;23.06;30.49
80629;BME280;69983;42.370;-71.210;2023-11-19T02:41:06;100683.60;;;23.14;30.34
80629;BME280;69983;42.370;-71.210;2023-11-19T02:43:05;100682.55;;;22.77;30.76
80629;BME280;69983;42.370;-71.210;2023-11-19T02:45:08;100686.34;;;22.95;30.57
80629;BME280;69983;42.370;-71.210;2023-11-19T02:47:06;100687.23;;;22.79;30.82
80629;BME280;69983;42.370;-71.210;2023-11-19T02:49:06;100690.43;;;22.70;30.90
80629;BME280;69983;42.370;-71.210;2023-11-19T02:51:07;100687.92;;;22.91;30.74
80629;BME280;69983;42.370;-71.210;2023-11-19T02:53:07;100691.82;;;22.79;30.90
80629;BME280;69983;42.370;-71.210;2023-11-19T02:55:08;100688.80;;;22.73;30.95
80629;BME280;69983;42.370;-71.210;2023-11-19T02:57:08;100683.99;;;22.74;31.02
80629;BME280;69983;42.370;-71.210;2023-11-19T02:59:08;100681.53;;;22.73;31.01
80629;BME280;69983;42.370;-71.210;2023-11-19T03:01:09;100679.15;;;22.87;30.91
80629;BME280;69983;42.370;-71.210;2023-11-19T03:03:09;100680.53;;;23.27;30.76
80629;BME280;69983;42.370;-71.210;2023-11-19T03:05:11;100686.30;;;22.78;31.06
80629;BME280;69983;42.370;-71.210;2023-11-19T03:07:10;100687.62;;;23.06;30.81
80629;BME280;69983;42.370;-71.210;2023-11-19T03:09:11;100694.43;;;22.85;31.04
80629;BME280;69983;42.370;-71.210;2023-11-19T03:11:11;100699.47;;;22.59;31.10
80629;BME280;69983;42.370;-71.210;2023-11-19T03:13:13;100698.74;;;23.11;31.10
80629;BME280;69983;42.370;-71.210;2023-11-19T03:15:13;100699.87;;;22.68;31.34
80629;BME280;69983;42.370;-71.210;2023-11-19T03:17:14;100700.54;;;22.84;31.22
80629;BME280;69983;42.370;-71.210;2023-11-19T03:19:14;100696.08;;;22.80;31.27
80629;BME280;69983;42.370;-71.210;2023-11-19T03:21:15;100690.77;;;22.54;31.59
80629;BME280;69983;42.370;-71.210;2023-11-19T03:23:15;100686.60;;;23.11;30.63
80629;BME280;69983;42.370;-71.210;2023-11-19T03:25:16;100684.63;;;22.64;30.43
80629;BME280;69983;42.370;-71.210;2023-11-19T03:27:16;100682.10;;;23.17;30.14
80629;BME280;69983;42.370;-71.210;2023-11-19T03:29:17;100675.91;;;22.84;30.00
80629;BME280;69983;42.370;-71.210;2023-11-19T03:31:23;100681.27;;;22.78;29.90
80629;BME280;69983;42.370;-71.210;2023-11-19T03:33:18;100685.55;;;22.61;30.44
80629;BME280;69983;42.370;-71.210;2023-11-19T03:35:19;100687.56;;;22.64;30.69
80629;BME280;69983;42.370;-71.210;2023-11-19T03:37:19;100681.48;;;22.72;30.79
80629;BME280;69983;42.370;-71.210;2023-11-19T03:39:20;100683.08;;;22.65;31.01
80629;BME280;69983;42.370;-71.210;2023-11-19T03:41:20;100686.64;;;22.56;31.27
80629;BME280;69983;42.370;-71.210;2023-11-19T03:43:21;100688.83;;;22.62;31.33
80629;BME280;69983;42.370;-71.210;2023-11-19T03:45:21;100691.73;;;23.08;31.18
80629;BME280;69983;42.370;-71.210;2023-11-19T03:47:22;100688.70;;;22.73;31.34
80629;BME280;69983;42.370;-71.210;2023-11-19T03:49:23;100692.01;;;22.62;31.53
80629;BME280;69983;42.370;-71.210;2023-11-19T03:51:28;100695.20;;;22.71;31.39
80629;BME280;69983;42.370;-71.210;2023-11-19T03:53:23;100697.42;;;22.48;31.71
80629;BME280;69983;42.370;-71.210;2023-11-19T03:55:25;100699.45;;;23.33;31.13
80629;BME280;69983;42.370;-71.210;2023-11-19T03:57:24;100703.51;;;23.04;31.48
80629;BME280;69983;42.370;-71.210;2023-11-19T03:59:25;100700.66;;;22.66;31.67
80629;BME280;69983;42.370;-71.210;2023-11-19T04:01:25;100701.96;;;22.74;31.62
80629;BME280;69983;42.370;-71.210;2023-11-19T04:03:26;100705.70;;;22.58;31.82
80629;BME280;69983;42.370;-71.210;2023-11-19T04:05:26;100710.67;;;22.61;31.86
80629;BME280;69983;42.370;-71.210;2023-11-19T04:07:26;100719.97;;;22.37;31.86
80629;BME280;69983;42.370;-71.210;2023-11-19T04:09:28;100724.79;;;22.55;31.95
80629;BME280;69983;42.370;-71.210;2023-11-19T04:11:33;100728.49;;;22.54;32.00
80629;BME280;69983;42.370;-71.210;2023-11-19T04:13:29;100727.28;;;23.00;31.83
80629;BME280;69983;42.370;-71.210;2023-11-19T04:15:28;100729.67;;;22.51;32.10
80629;BME280;69983;42.370;-71.210;2023-11-19T04:17:29;100728.08;;;22.41;32.13
80629;BME280;69983;42.370;-71.210;2023-11-19T04:19:29;100725.04;;;22.86;31.96
80629;BME280;69983;42.370;-71.210;2023-11-19T04:21:30;100722.39;;;22.93;31.90
80629;BME280;69983;42.370;-71.210;2023-11-19T04:23:32;100723.78;;;22.83;32.08
80629;BME280;69983;42.370;-71.210;2023-11-19T04:25:31;100720.12;;;23.24;31.63
80629;BME280;69983;42.370;-71.210;2023-11-19T04:27:31;100720.30;;;22.80;31.83
80629;BME280;69983;42.370;-71.210;2023-11-19T04:29:32;100725.85;;;22.68;32.02
80629;BME280;69983;42.370;-71.210;2023-11-19T04:31:32;100731.67;;;22.67;32.07
80629;BME280;69983;42.370;-71.210;2023-11-19T04:33:34;100734.65;;;23.00;32.03
80629;BME280;69983;42.370;-71.210;2023-11-19T04:35:34;100737.01;;;22.68;32.11
80629;BME280;69983;42.370;-71.210;2023-11-19T04:37:33;100742.12;;;22.79;32.02
80629;BME280;69983;42.370;-71.210;2023-11-19T04:39:34;100746.93;;;22.70;32.08
80629;BME280;69983;42.370;-71.210;2023-11-19T04:41:34;100751.29;;;22.72;32.12
80629;BME280;69983;42.370;-71.210;2023-11-19T04:43:37;100759.15;;;22.74;32.16
80629;BME280;69983;42.370;-71.210;2023-11-19T04:45:35;100761.48;;;22.65;31.99
80629;BME280;69983;42.370;-71.210;2023-11-19T04:47:36;100765.33;;;22.78;32.10
80629;BME280;69983;42.370;-71.210;2023-11-19T04:49:41;100764.42;;;23.02;31.83
80629;BME280;69983;42.370;-71.210;2023-11-19T04:51:39;100764.24;;;23.14;31.72
80629;BME280;69983;42.370;-71.210;2023-11-19T04:53:38;100766.53;;;23.22;31.88
80629;BME280;69983;42.370;-71.210;2023-11-19T04:55:38;100768.62;;;22.97;31.64
80629;BME280;69983;42.370;-71.210;2023-11-19T04:57:39;100769.45;;;23.20;31.61
80629;BME280;69983;42.370;-71.210;2023-11-19T04:59:39;100766.51;;;22.94;31.69
80629;BME280;69983;42.370;-71.210;2023-11-19T05:01:40;100763.25;;;23.39;31.43
80629;BME280;69983;42.370;-71.210;2023-11-19T05:03:40;100760.17;;;23.35;31.44
80629;BME280;69983;42.370;-71.210;2023-11-19T05:05:41;100762.66;;;23.01;31.80
80629;BME280;69983;42.370;-71.210;2023-11-19T05:07:41;100757.80;;;23.22;31.61
80629;BME280;69983;42.370;-71.210;2023-11-19T05:09:41;100759.60;;;23.34;31.49
80629;BME280;69983;42.370;-71.210;2023-11-19T05:11:41;100760.69;;;23.17;31.66
80629;BME280;69983;42.370;-71.210;2023-11-19T05:13:42;100766.46;;;23.27;31.58
80629;BME280;69983;42.370;-71.210;2023-11-19T05:15:43;100768.57;;;23.45;31.35
80629;BME280;69983;42.370;-71.210;2023-11-19T05:17:43;100768.24;;;23.15;31.41
80629;BME280;69983;42.370;-71.210;2023-11-19T05:19:43;100767.28;;;23.25;31.31
80629;BME280;69983;42.370;-71.210;2023-11-19T05:21:44;100763.03;;;23.50;31.03
80629;BME280;69983;42.370;-71.210;2023-11-19T05:23:44;100760.72;;;23.90;30.86
80629;BME280;69983;42.370;-71.210;2023-11-19T05:25:45;100763.51;;;23.79;31.04
80629;BME280;69983;42.370;-71.210;2023-11-19T05:27:45;100756.06;;;23.06;31.34
80629;BME280;69983;42.370;-71.210;2023-11-19T05:29:45;100754.48;;;23.31;31.07
80629;BME280;69983;42.370;-71.210;2023-11-19T05:31:56;100761.04;;;23.52;31.08
80629;BME280;69983;42.370;-71.210;2023-11-19T05:33:47;100766.23;;;23.59;31.27
80629;BME280;69983;42.370;-71.210;2023-11-19T05:35:47;100772.95;;;23.63;31.00
80629;BME280;69983;42.370;-71.210;2023-11-19T05:37:48;100765.33;;;23.97;30.92
80629;BME280;69983;42.370;-71.210;2023-11-19T05:39:48;100763.91;;;24.24;30.68
80629;BME280;69983;42.370;-71.210;2023-11-19T05:41:49;100759.38;;;22.88;30.85
80629;BME280;69983;42.370;-71.210;2023-11-19T05:43:49;100754.27;;;22.52;30.51
80629;BME280;69983;42.370;-71.210;2023-11-19T05:45:49;100755.98;;;22.68;29.68
80629;BME280;69983;42.370;-71.210;2023-11-19T05:47:49;100755.92;;;23.13;29.18
80629;BME280;69983;42.370;-71.210;2023-11-19T05:49:51;100757.65;;;23.34;28.99
80629;BME280;69983;42.370;-71.210;2023-11-19T05:51:50;100753.59;;;24.27;28.74
80629;BME280;69983;42.370;-71.210;2023-11-19T05:53:51;100759.35;;;24.80;29.13
80629;BME280;69983;42.370;-71.210;2023-11-19T05:55:53;100758.18;;;24.70;29.77
80629;BME280;69983;42.370;-71.210;2023-11-19T05:57:52;100755.46;;;24.42;30.14
80629;BME280;69983;42.370;-71.210;2023-11-19T05:59:53;100753.11;;;23.81;30.53
80629;BME280;69983;42.370;-71.210;2023-11-19T06:01:53;100755.09;;;23.93;30.66
80629;BME280;69983;42.370;-71.210;2023-11-19T06:03:54;100756.07;;;23.30;31.05
80629;BME280;69983;42.370;-71.210;2023-11-19T06:05:54;100753.12;;;23.64;31.03
80629;BME280;69983;42.370;-71.210;2023-11-19T06:07:54;100755.18;;;24.26;30.90
80629;BME280;69983;42.370;-71.210;2023-11-19T06:09:55;100757.82;;;23.55;31.14
80629;BME280;69983;42.370;-71.210;2023-11-19T06:11:55;100761.07;;;23.67;31.05
80629;BME280;69983;42.370;-71.210;2023-11-19T06:13:56;100761.64;;;23.45;31.28
80629;BME280;69983;42.370;-71.210;2023-11-19T06:15:56;100758.94;;;23.47;31.24
80629;BME280;69983;42.370;-71.210;2023-11-19T06:17:56;100766.27;;;23.59;31.33
80629;BME280;69983;42.370;-71.210;2023-11-19T06:19:57;100769.56;;;23.67;31.02
80629;BME280;69983;42.370;-71.210;2023-11-19T06:21:57;100767.26;;;23.63;31.08
80629;BME280;69983;42.370;-71.210;2023-11-19T06:23:59;100765.18;;;23.88;31.05
80629;BME280;69983;42.370;-71.210;2023-11-19T06:25:58;100766.57;;;23.68;31.05
80629;BME280;69983;42.370;-71.210;2023-11-19T06:27:58;100760.45;;;23.99;31.00
80629;BME280;69983;42.370;-71.210;2023-11-19T06:29:58;100753.78;;;24.31;30.60
80629;BME280;69983;42.370;-71.210;2023-11-19T06:31:59;100758.18;;;23.84;30.84
80629;BME280;69983;42.370;-71.210;2023-11-19T06:33:59;100762.40;;;23.82;30.88
80629;BME280;69983;42.370;-71.210;2023-11-19T06:36:00;100762.21;;;24.19;30.98
80629;BME280;69983;42.370;-71.210;2023-11-19T06:38:00;100762.84;;;23.97;30.66
80629;BME280;69983;42.370;-71.210;2023-11-19T06:40:03;100761.31;;;24.05;31.08
80629;BME280;69983;42.370;-71.210;2023-11-19T06:42:01;100768.26;;;23.68;31.06
80629;BME280;69983;42.370;-71.210;2023-11-19T06:44:01;100772.73;;;24.01;31.01
80629;BME280;69983;42.370;-71.210;2023-11-19T06:46:02;100772.81;;;24.07;30.94
80629;BME280;69983;42.370;-71.210;2023-11-19T06:48:03;100774.55;;;23.68;31.32
80629;BME280;69983;42.370;-71.210;2023-11-19T06:50:04;100767.53;;;24.05;31.17
80629;BME280;69983;42.370;-71.210;2023-11-19T06:52:04;100767.41;;;23.53;31.19
80629;BME280;69983;42.370;-71.210;2023-11-19T06:54:05;100766.62;;;23.87;30.81
80629;BME280;69983;42.370;-71.210;2023-11-19T06:56:06;100768.95;;;23.59;31.11
80629;BME280;69983;42.370;-71.210;2023-11-19T06:58:06;100773.10;;;23.38;31.35
80629;BME280;69983;42.370;-71.210;2023-11-19T07:00:07;100772.84;;;24.14;31.05
80629;BME280;69983;42.370;-71.210;2023-11-19T07:02:07;100771.85;;;23.92;30.79
80629;BME280;69983;42.370;-71.210;2023-11-19T07:04:07;100773.87;;;23.79;31.10
80629;BME280;69983;42.370;-71.210;2023-11-19T07:06:07;100773.98;;;24.00;30.90
80629;BME280;69983;42.370;-71.210;2023-11-19T07:08:08;100774.38;;;24.01;30.87
80629;BME280;69983;42.370;-71.210;2023-11-19T07:10:09;100774.90;;;23.81;30.83
80629;BME280;69983;42.370;-71.210;2023-11-19T07:12:09;100780.33;;;23.64;31.27
80629;BME280;69983;42.370;-71.210;2023-11-19T07:14:10;100783.71;;;23.93;30.72
80629;BME280;69983;42.370;-71.210;2023-11-19T07:16:10;100783.12;;;24.13;30.99
80629;BME280;69983;42.370;-71.210;2023-11-19T07:18:11;100786.40;;;24.01;31.05
80629;BME280;69983;42.370;-71.210;2023-11-19T07:20:13;100783.29;;;23.92;30.62
80629;BME280;69983;42.370;-71.210;2023-11-19T07:22:12;100786.18;;;23.88;31.21
80629;BME280;69983;42.370;-71.210;2023-11-19T07:24:12;100789.29;;;23.94;31.17
80629;BME280;69983;42.370;-71.210;2023-11-19T07:26:13;100787.85;;;24.02;31.13
80629;BME280;69983;42.370;-71.210;2023-11-19T07:28:13;100786.36;;;23.77;31.19
80629;BME280;69983;42.370;-71.210;2023-11-19T07:30:13;100788.67;;;23.78;30.92
80629;BME280;69983;42.370;-71.210;2023-11-19T07:32:14;100795.40;;;23.82;30.87
80629;BME280;69983;42.370;-71.210;2023-11-19T07:34:14;100796.71;;;23.48;31.20
80629;BME280;69983;42.370;-71.210;2023-11-19T07:36:14;100800.16;;;24.12;31.07
80629;BME280;69983;42.370;-71.210;2023-11-19T07:38:16;100800.22;;;24.08;30.85
80629;BME280;69983;42.370;-71.210;2023-11-19T07:40:18;100805.41;;;23.72;30.94
80629;BME280;69983;42.370;-71.210;2023-11-19T07:42:16;100810.91;;;23.86;31.07
80629;BME280;69983;42.370;-71.210;2023-11-19T07:44:16;100811.11;;;23.47;31.21
80629;BME280;69983;42.370;-71.210;2023-11-19T07:46:17;100810.87;;;23.85;31.35
80629;BME280;69983;42.370;-71.210;2023-11-19T07:48:17;100810.39;;;23.54;31.42
80629;BME280;69983;42.370;-71.210;2023-11-19T07:50:18;100808.46;;;23.39;31.35
80629;BME280;69983;42.370;-71.210;2023-11-19T07:52:18;100810.86;;;23.69;31.29
80629;BME280;69983;42.370;-71.210;2023-11-19T07:54:19;100810.24;;;23.48;31.48
80629;BME280;69983;42.370;-71.210;2023-11-19T07:56:20;100810.80;;;23.99;31.21
80629;BME280;69983;42.370;-71.210;2023-11-19T07:58:20;100811.73;;;23.97;31.20
80629;BME280;69983;42.370;-71.210;2023-11-19T08:00:20;100812.35;;;23.79;31.17
80629;BME280;69983;42.370;-71.210;2023-11-19T08:02:21;100815.15;;;23.92;31.03
80629;BME280;69983;42.370;-71.210;2023-11-19T08:04:21;100815.47;;;23.76;31.20
80629;BME280;69983;42.370;-71.210;2023-11-19T08:06:27;100816.88;;;24.00;30.96
80629;BME280;69983;42.370;-71.210;2023-11-19T08:08:22;100815.35;;;23.66;31.32
80629;BME280;69983;42.370;-71.210;2023-11-19T08:10:24;100814.06;;;23.46;31.20
80629;BME280;69983;42.370;-71.210;2023-11-19T08:12:23;100813.43;;;23.59;31.50
80629;BME280;69983;42.370;-71.210;2023-11-19T08:14:23;100817.02;;;23.37;31.46
80629;BME280;69983;42.370;-71.210;2023-11-19T08:16:23;100815.93;;;23.63;31.40
80629;BME280;69983;42.370;-71.210;2023-11-19T08:18:23;100812.64;;;23.48;31.30
80629;BME280;69983;42.370;-71.210;2023-11-19T08:20:24;100816.66;;;23.57;31.43
80629;BME280;69983;42.370;-71.210;2023-11-19T08:22:24;100828.34;;;23.87;31.13
80629;BME280;69983;42.370;-71.210;2023-11-19T08:24:24;100832.21;;;23.49;31.50
80629;BME280;69983;42.370;-71.210;2023-11-19T08:26:24;100837.62;;;23.65;30.78
80629;BME280;69983;42.370;-71.210;2023-11-19T08:28:25;100837.99;;;23.13;29.84
80629;BME280;69983;42.370;-71.210;2023-11-19T08:30:25;100838.16;;;22.89;28.89
80629;BME280;69983;42.370;-71.210;2023-11-19T08:32:26;100838.65;;;22.29;29.38
80629;BME280;69983;42.370;-71.210;2023-11-19T08:34:26;100840.31;;;22.36;28.66
80629;BME280;69983;42.370;-71.210;2023-11-19T08:36:26;100839.05;;;21.95;28.49
80629;BME280;69983;42.370;-71.210;2023-11-19T08:38:27;100842.10;;;22.53;27.61
80629;BME280;69983;42.370;-71.210;2023-11-19T08:40:34;100852.96;;;22.51;26.72
80629;BME280;69983;42.370;-71.210;2023-11-19T08:42:28;100852.22;;;22.52;26.65
80629;BME280;69983;42.370;-71.210;2023-11-19T08:44:28;100845.50;;;22.09;26.82
80629;BME280;69983;42.370;-71.210;2023-11-19T08:46:29;100839.84;;;22.28;26.16
80629;BME280;69983;42.370;-71.210;2023-11-19T08:48:29;100842.86;;;21.98;26.50
80629;BME280;69983;42.370;-71.210;2023-11-19T08:50:29;100837.61;;;21.93;26.27
80629;BME280;69983;42.370;-71.210;2023-11-19T08:52:30;100834.63;;;21.91;26.21
80629;BME280;69983;42.370;-71.210;2023-11-19T08:54:31;100833.32;;;21.76;26.42
80629;BME280;69983;42.370;-71.210;2023-11-19T08:56:31;100831.06;;;21.74;26.17
80629;BME280;69983;42.370;-71.210;2023-11-19T08:58:31;100832.48;;;22.08;25.77
80629;BME280;69983;42.370;-71.210;2023-11-19T09:00:32;100832.78;;;22.25;25.91
80629;BME280;69983;42.370;-71.210;2023-11-19T09:02:32;100827.40;;;21.67;26.58
80629;BME280;69983;42.370;-71.210;2023-11-19T09:04:33;100825.64;;;22.22;27.21
80629;BME280;69983;42.370;-71.210;2023-11-19T09:06:33;100825.26;;;21.82;28.32
80629;BME280;69983;42.370;-71.210;2023-11-19T09:08:33;100828.09;;;21.49;29.10
80629;BME280;69983;42.370;-71.210;2023-11-19T09:10:34;100829.03;;;22.18;29.40
80629;BME280;69983;42.370;-71.210;2023-11-19T09:12:34;100829.61;;;21.92;29.85
80629;BME280;69983;42.370;-71.210;2023-11-19T09:14:35;100827.73;;;21.92;29.95
80629;BME280;69983;42.370;-71.210;2023-11-19T09:16:36;100830.65;;;22.04;30.36
80629;BME280;69983;42.370;-71.210;2023-11-19T09:18:36;100827.49;;;21.60;30.82
80629;BME280;69983;42.370;-71.210;2023-11-19T09:20:37;100829.03;;;21.77;30.93
80629;BME280;69983;42.370;-71.210;2023-11-19T09:22:37;100826.04;;;21.68;31.18
80629;BME280;69983;42.370;-71.210;2023-11-19T09:24:37;100828.69;;;21.76;31.28
80629;BME280;69983;42.370;-71.210;2023-11-19T09:26:38;100827.13;;;21.86;31.32
80629;BME280;69983;42.370;-71.210;2023-11-19T09:28:38;100829.81;;;21.85;31.47
80629;BME280;69983;42.370;-71.210;2023-11-19T09:30:38;100830.59;;;21.82;31.64
80629;BME280;69983;42.370;-71.210;2023-11-19T09:32:38;100833.73;;;21.74;31.84
80629;BME280;69983;42.370;-71.210;2023-11-19T09:34:39;100838.59;;;21.58;31.85
80629;BME280;69983;42.370;-71.210;2023-11-19T09:36:39;100850.33;;;21.71;32.07
80629;BME280;69983;42.370;-71.210;2023-11-19T09:38:40;100850.79;;;21.79;32.06
80629;BME280;69983;42.370;-71.210;2023-11-19T09:40:41;100854.86;;;21.80;32.15
80629;BME280;69983;42.370;-71.210;2023-11-19T09:42:43;100856.08;;;21.70;32.35
80629;BME280;69983;42.370;-71.210;2023-11-19T09:44:43;100858.49;;;21.62;32.51
80629;BME280;69983;42.370;-71.210;2023-11-19T09:46:42;100858.48;;;21.61;32.57
80629;BME280;69983;42.370;-71.210;2023-11-19T09:48:43;100850.75;;;21.64;32.60
80629;BME280;69983;42.370;-71.210;2023-11-19T09:50:44;100852.79;;;21.83;32.70
80629;BME280;69983;42.370;-71.210;2023-11-19T09:52:44;100845.67;;;21.52;32.84
80629;BME280;69983;42.370;-71.210;2023-11-19T09:54:44;100847.09;;;21.48;32.93
80629;BME280;69983;42.370;-71.210;2023-11-19T09:56:45;100843.71;;;21.47;33.01
80629;BME280;69983;42.370;-71.210;2023-11-19T09:58:45;100847.71;;;21.50;33.03
80629;BME280;69983;42.370;-71.210;2023-11-19T10:00:46;100850.33;;;21.55;33.03
80629;BME280;69983;42.370;-71.210;2023-11-19T10:02:47;100849.28;;;21.48;33.16
80629;BME280;69983;42.370;-71.210;2023-11-19T10:04:47;100855.07;;;21.67;32.95
80629;BME280;69983;42.370;-71.210;2023-11-19T10:06:48;100851.31;;;21.74;32.90
80629;BME280;69983;42.370;-71.210;2023-11-19T10:08:48;100850.97;;;21.50;33.23
80629;BME280;69983;42.370;-71.210;2023-11-19T10:10:48;100850.16;;;21.54;33.22
80629;BME280;69983;42.370;-71.210;2023-11-19T10:12:50;100853.80;;;21.47;33.34